Terminal Aerodrome Forecast
Issued by NWS

Current Version | Previous Version | Graphics & Text | Print | Product List | Glossary On
Versions: 1 2 3 4 5 6 7 8 9 10 11 12 13 14 15 16 17 18 19 20 21 22 23
000
FTUS41 KILN 231522 AAA
TAFLCK
TAF AMD
KLCK 231522Z 2315/2412 20010G18KT 2SM SHRA VCTS OVC022CB
     FM240000 20006KT 4SM SHRA OVC029
     FM240100 28005KT P6SM VCSH OVC030
     FM240800 32006KT P6SM SCT230=

USA.gov is the U.S. government's official web portal to all federal, state and local government web resources and services.